Nearby METAR Reports

 

KMTN - Baltimore/Martin, Maryland, USA
Distance from station: SSE 8mi, 13km
Updated: Mon, 27-Apr-2015 9:45pm EDT
Clear
Clear
 Wind from W
Wind: W 10 mph , 17 km/h
Temperature: 52°F , 11°C
Dew Point: 37°F , 3°C
Humidity: 58%
Barometer: 29.84 inHg , 1010.5 hPa
Clouds: Clear
Visibility: 10 miles , 16 km
2015/04/28 01:45 KMTN 280145Z 28009KT 10SM SKC 11/03 A2984 RMK LAST
KDMH - Baltimore/Dwntwn, Maryland, USA
Distance from station: SW 12mi, 19km
Updated: Mon, 27-Apr-2015 9:54pm EDT

 
Temperature: 52°F , 11°C
Dew Point: 37°F , 3°C
Humidity: 58%
Barometer: 29.85 inHg , 1010.8 hPa
2015/04/28 01:54 KDMH 280154Z AUTO 11/03 A2985 RMK AO1 SLP108 T01110028
 
KBWI - Balto/Wash Intl, Maryland, USA
Distance from station: SSW 20mi, 33km
Updated: Mon, 27-Apr-2015 9:54pm EDT
Partly cloudy
Partly cloudy
 Wind from WNW
Wind: WNW 8 mph , 13 km/h
Temperature: 48°F , 9°C
Wind Chill: 44°F , 7°C
Dew Point: 37°F , 3°C
Humidity: 66%
Barometer: 29.84 inHg , 1010.5 hPa
Clouds: Partly cloudy
Visibility: 10 miles , 16 km
Cloud details: Few Clouds 8000 ft
Partly cloudy 10000 ft
2015/04/28 01:54 KBWI 280154Z 30007KT 10SM FEW080 SCT100 09/03 A2984 RMK AO2 SLP106 T00940028
KDMW - Carroll Cnty, Maryland, USA
Distance from station: WNW 30mi, 48km
Updated: Mon, 27-Apr-2015 9:50pm EDT
Partly cloudy
Partly cloudy
 Wind from WNW
Wind: WNW 8 mph , 13 km/h
Temperature: 48°F , 9°C
Wind Chill: 44°F , 7°C
Dew Point: 39°F , 4°C
Humidity: 71%
Barometer: 29.86 inHg , 1011.2 hPa
Clouds: Partly cloudy
Visibility: 10 miles , 16 km
Cloud details: Partly cloudy 4900 ft
Partly cloudy 6500 ft
2015/04/28 01:50 KDMW 280150Z AUTO 29007KT 10SM SCT049 SCT065 09/04 A2986 RMK AO2
 
KNAK - Annapolis/Naval, Maryland, USA
Distance from station: S 30mi, 48km
Updated: Mon, 27-Apr-2015 9:54pm EDT
Clear
Clear
 Wind from WNW
Wind: WNW 10 mph , 17 km/h, Gust: 22 mph , 35 km/h
Temperature: 54°F , 12°C
Dew Point: 36°F , 2°C
Humidity: 51%
Barometer: 29.84 inHg , 1010.5 hPa
Clouds: Clear
Visibility: 10 miles , 16 km
2015/04/28 01:54 KNAK 280154Z AUTO 30009G19KT 10SM CLR 12/02 A2984 RMK AO2 SLP105 T01170022
KW29 - Stevensville, Maryland, USA
Distance from station: SSE 31mi, 50km
Updated: Mon, 27-Apr-2015 9:53pm EDT

 Wind from WNW
Wind: WNW 15 mph , 24 km/h, Gust: 18 mph , 30 km/h
Barometer: 29.84 inHg , 1010.5 hPa
Visibility: 10 miles , 16 km
2015/04/28 01:53 KW29 280153Z AUTO 30013G16KT 10SM A2984 RMK AO1
 
KCGS - College Park, Maryland, USA
Distance from station: SW 38mi, 61km
Updated: Mon, 27-Apr-2015 9:50pm EDT
Partly cloudy
Partly cloudy
 Wind from NW
Wind: NW 6 mph , 9 km/h
Temperature: 52°F , 11°C
Dew Point: 37°F , 3°C
Humidity: 58%
Barometer: 29.86 inHg , 1011.2 hPa
Clouds: Partly cloudy
Visibility: 10 miles , 16 km
Cloud details: Partly cloudy 7500 ft
Partly cloudy 8500 ft
2015/04/28 01:50 KCGS 280150Z AUTO 31005KT 10SM SCT075 SCT085 11/03 A2986 RMK AO1
KGAI - Gaithersburg, Maryland, USA
Distance from station: WSW 40mi, 65km
Updated: Mon, 27-Apr-2015 9:55pm EDT
Overcast
Overcast
 Wind from WNW
Wind: WNW 12 mph , 19 km/h
Temperature: 48°F , 9°C
Wind Chill: 43°F , 6°C
Dew Point: 36°F , 2°C
Humidity: 62%
Barometer: 29.90 inHg , 1012.5 hPa
Clouds: Overcast
Visibility: 10 miles , 16 km
Cloud details: Few Clouds 7000 ft
Overcast 8500 ft
2015/04/28 01:55 KGAI 280155Z AUTO 30010KT 10SM FEW070 OVC085 09/02 A2990 RMK AO1
 
KTHV - York, Pennsylvania, USA
Distance from station: NNW 40mi, 65km
Updated: Mon, 27-Apr-2015 9:53pm EDT
Mostly cloudy
Mostly cloudy
 Wind from NW
Wind: NW 8 mph , 13 km/h
Temperature: 46°F , 8°C
Wind Chill: 42°F , 6°C
Dew Point: 37°F , 3°C
Humidity: 71%
Barometer: 29.85 inHg , 1010.8 hPa
Clouds: Mostly cloudy
Visibility: 10 miles , 16 km
Cloud details: Mostly cloudy 6000 ft
2015/04/28 01:53 KTHV 280153Z AUTO 32007KT 10SM BKN060 08/03 A2985 RMK AO2 SLP111 T00830028
KFDK - Frederick, Maryland, USA
Distance from station: W 47mi, 75km
Updated: Mon, 27-Apr-2015 9:50pm EDT
Overcast
Overcast
 Wind from WNW
Wind: WNW 6 mph , 9 km/h
Temperature: 52°F , 11°C
Dew Point: 36°F , 2°C
Humidity: 54%
Barometer: 29.92 inHg , 1013.2 hPa
Clouds: Overcast
Visibility: 10 miles , 16 km
Cloud details: Overcast 9000 ft
2015/04/28 01:50 KFDK 280150Z AUTO 30005KT 10SM OVC090 11/02 A2992 RMK AO2
 
KESN - Easton/Newnam, Maryland, USA
Distance from station: SSE 48mi, 78km
Updated: Mon, 27-Apr-2015 10:10pm EDT
Clear
Clear
 Wind from NNW
Wind: NNW 14 mph , 22 km/h, Gust: 18 mph , 30 km/h
Temperature: 54°F , 12°C
Dew Point: 39°F , 4°C
Humidity: 58%
Barometer: 29.86 inHg , 1011.2 hPa
Clouds: Clear
Visibility: 10 miles , 16 km
2015/04/28 02:10 KESN 280210Z AUTO 34012G16KT 10SM CLR 12/04 A2986 RMK AO2 T01210038
KDCA - Washington/Natl, Washington D.c., USA
Distance from station: SW 49mi, 79km
Updated: Mon, 27-Apr-2015 9:52pm EDT
Overcast
Overcast
 Wind from NW
Wind: NW 9 mph , 15 km/h
Temperature: 54°F , 12°C
Dew Point: 39°F , 4°C
Humidity: 58%
Barometer: 29.88 inHg , 1011.9 hPa
Clouds: Overcast
Visibility: 10 miles , 16 km
Cloud details: Mostly cloudy 6500 ft
Overcast 8000 ft
2015/04/28 01:52 KDCA 280152Z 31008KT 10SM BKN065 OVC080 12/04 A2988 RMK AO2 SLP118 T01220039
 
KLNS - Lancaster, Pennsylvania, USA
Distance from station: N 49mi, 79km
Updated: Mon, 27-Apr-2015 9:53pm EDT
Clear
Clear
 Wind from NW
Wind: NW 14 mph , 22 km/h
Temperature: 48°F , 9°C
Wind Chill: 42°F , 6°C
Dew Point: 34°F , 1°C
Humidity: 58%
Barometer: 29.82 inHg , 1009.8 hPa
Clouds: Clear
Visibility: 10 miles , 16 km
2015/04/28 01:53 KLNS 280153Z 32012KT 10SM CLR 09/01 A2982 RMK AO2 SLP099 T00940011
KILG - Wilmington, Delaware, USA
Distance from station: ENE 50mi, 81km
Updated: Mon, 27-Apr-2015 9:51pm EDT
Partly cloudy
Partly cloudy
 Wind from NW
Wind: NW 10 mph , 17 km/h
Temperature: 50°F , 10°C
Wind Chill: 46°F , 8°C
Dew Point: 32°F , 0°C
Humidity: 50%
Barometer: 29.80 inHg , 1009.1 hPa
Clouds: Partly cloudy
Visibility: 10 miles , 16 km
Cloud details: Partly cloudy 5500 ft
2015/04/28 01:51 KILG 280151Z 31009KT 10SM SCT055 10/00 A2980 RMK AO2 SLP090 T01000000